sensor_id;sensor_type;location;lat;lon;timestamp;pressure;altitude;pressure_sealevel;temperature;humidity
21760;BME280;11041;50.854;20.580;2023-03-03T00:01:48;99019.81;;;-3.51;86.75
21760;BME280;11041;50.854;20.580;2023-03-03T00:04:14;99031.78;;;-3.47;87.28
21760;BME280;11041;50.854;20.580;2023-03-03T00:06:43;99034.25;;;-3.46;87.34
21760;BME280;11041;50.854;20.580;2023-03-03T00:09:10;99034.44;;;-3.40;87.35
21760;BME280;11041;50.854;20.580;2023-03-03T00:11:37;99014.84;;;-3.48;86.99
21760;BME280;11041;50.854;20.580;2023-03-03T00:14:29;99050.09;;;-3.37;87.21
21760;BME280;11041;50.854;20.580;2023-03-03T00:17:00;99048.69;;;-3.40;87.72
21760;BME280;11041;50.854;20.580;2023-03-03T00:19:39;99011.41;;;-3.61;87.84
21760;BME280;11041;50.854;20.580;2023-03-03T00:22:21;99037.56;;;-3.44;88.11
21760;BME280;11041;50.854;20.580;2023-03-03T00:24:49;99023.59;;;-3.59;87.89
21760;BME280;11041;50.854;20.580;2023-03-03T00:27:30;99038.84;;;-3.53;88.39
21760;BME280;11041;50.854;20.580;2023-03-03T00:30:00;99031.00;;;-3.54;89.21
21760;BME280;11041;50.854;20.580;2023-03-03T00:32:45;99022.78;;;-3.59;88.87
21760;BME280;11041;50.854;20.580;2023-03-03T00:35:32;99029.78;;;-3.58;89.79
21760;BME280;11041;50.854;20.580;2023-03-03T00:38:13;99030.84;;;-3.59;90.18
21760;BME280;11041;50.854;20.580;2023-03-03T00:40:40;99045.63;;;-3.44;90.57
21760;BME280;11041;50.854;20.580;2023-03-03T00:46:02;99029.38;;;-3.55;91.15
21760;BME280;11041;50.854;20.580;2023-03-03T00:48:44;99042.50;;;-3.40;91.63
21760;BME280;11041;50.854;20.580;2023-03-03T00:51:31;99020.59;;;-3.44;92.11
21760;BME280;11041;50.854;20.580;2023-03-03T00:54:01;99006.59;;;-3.46;92.55
21760;BME280;11041;50.854;20.580;2023-03-03T00:56:27;99014.38;;;-3.38;92.25
21760;BME280;11041;50.854;20.580;2023-03-03T00:58:54;99007.56;;;-3.40;91.99
21760;BME280;11041;50.854;20.580;2023-03-03T01:01:20;99038.03;;;-3.22;92.99
21760;BME280;11041;50.854;20.580;2023-03-03T01:03:47;99010.63;;;-3.37;93.21
21760;BME280;11041;50.854;20.580;2023-03-03T01:06:14;99031.41;;;-3.26;93.27
21760;BME280;11041;50.854;20.580;2023-03-03T01:08:42;99025.59;;;-3.23;93.84
21760;BME280;11041;50.854;20.580;2023-03-03T01:11:20;99031.50;;;-3.07;93.95
21760;BME280;11041;50.854;20.580;2023-03-03T01:13:50;99018.16;;;-3.21;93.48
21760;BME280;11041;50.854;20.580;2023-03-03T01:16:17;99013.66;;;-3.27;93.77
21760;BME280;11041;50.854;20.580;2023-03-03T01:18:44;99026.97;;;-3.13;94.18
21760;BME280;11041;50.854;20.580;2023-03-03T01:21:11;99021.09;;;-3.04;94.53
21760;BME280;11041;50.854;20.580;2023-03-03T01:23:37;98999.53;;;-2.97;93.72
21760;BME280;11041;50.854;20.580;2023-03-03T01:26:04;99012.38;;;-2.99;93.82
21760;BME280;11041;50.854;20.580;2023-03-03T01:28:33;98958.38;;;-3.16;93.68
21760;BME280;11041;50.854;20.580;2023-03-03T01:31:04;98998.28;;;-2.94;93.25
21760;BME280;11041;50.854;20.580;2023-03-03T01:33:33;98997.63;;;-2.90;93.18
21760;BME280;11041;50.854;20.580;2023-03-03T01:36:02;98977.16;;;-2.91;93.03
21760;BME280;11041;50.854;20.580;2023-03-03T01:38:29;98990.47;;;-2.78;93.46
21760;BME280;11041;50.854;20.580;2023-03-03T01:40:58;99002.28;;;-2.79;93.35
21760;BME280;11041;50.854;20.580;2023-03-03T01:43:29;99004.31;;;-2.74;92.96
21760;BME280;11041;50.854;20.580;2023-03-03T01:48:43;98962.56;;;-3.02;93.66
21760;BME280;11041;50.854;20.580;2023-03-03T01:51:28;98985.38;;;-2.86;94.02
21760;BME280;11041;50.854;20.580;2023-03-03T01:54:02;98984.63;;;-2.74;93.92
21760;BME280;11041;50.854;20.580;2023-03-03T01:56:29;98980.22;;;-2.87;94.31
21760;BME280;11041;50.854;20.580;2023-03-03T01:59:30;98956.91;;;-2.93;94.29
21760;BME280;11041;50.854;20.580;2023-03-03T02:01:59;98974.88;;;-2.69;94.03
21760;BME280;11041;50.854;20.580;2023-03-03T02:04:26;98949.16;;;-2.83;93.65
21760;BME280;11041;50.854;20.580;2023-03-03T02:07:00;98969.03;;;-2.66;93.94
21760;BME280;11041;50.854;20.580;2023-03-03T02:09:36;98975.00;;;-2.64;94.30
21760;BME280;11041;50.854;20.580;2023-03-03T02:12:10;98978.00;;;-2.53;93.83
21760;BME280;11041;50.854;20.580;2023-03-03T02:14:38;98974.69;;;-2.55;94.17
21760;BME280;11041;50.854;20.580;2023-03-03T02:17:04;98950.06;;;-2.71;93.73
21760;BME280;11041;50.854;20.580;2023-03-03T02:22:33;98948.56;;;-2.67;93.47
21760;BME280;11041;50.854;20.580;2023-03-03T02:25:07;98971.63;;;-2.41;93.44
21760;BME280;11041;50.854;20.580;2023-03-03T02:27:37;98957.94;;;-2.39;93.54
21760;BME280;11041;50.854;20.580;2023-03-03T02:30:17;98966.16;;;-2.34;92.86
21760;BME280;11041;50.854;20.580;2023-03-03T02:32:44;98969.09;;;-2.36;92.90
21760;BME280;11041;50.854;20.580;2023-03-03T02:35:35;98967.09;;;-2.40;93.14
21760;BME280;11041;50.854;20.580;2023-03-03T02:38:36;98969.84;;;-2.28;93.81
21760;BME280;11041;50.854;20.580;2023-03-03T02:44:21;98951.56;;;-2.26;93.28
21760;BME280;11041;50.854;20.580;2023-03-03T02:46:51;98917.22;;;-2.43;93.67
21760;BME280;11041;50.854;20.580;2023-03-03T02:49:22;98944.63;;;-2.16;92.75
21760;BME280;11041;50.854;20.580;2023-03-03T02:51:49;98921.19;;;-2.15;92.97
21760;BME280;11041;50.854;20.580;2023-03-03T02:54:19;98937.72;;;-2.11;92.52
21760;BME280;11041;50.854;20.580;2023-03-03T02:56:46;98953.09;;;-2.00;92.14
21760;BME280;11041;50.854;20.580;2023-03-03T02:59:13;98933.63;;;-2.14;92.02
21760;BME280;11041;50.854;20.580;2023-03-03T03:01:40;98925.56;;;-2.14;92.05
21760;BME280;11041;50.854;20.580;2023-03-03T03:04:11;98954.63;;;-1.93;92.53
21760;BME280;11041;50.854;20.580;2023-03-03T03:06:39;98951.50;;;-1.89;91.74
21760;BME280;11041;50.854;20.580;2023-03-03T03:09:08;98946.13;;;-1.89;91.92
21760;BME280;11041;50.854;20.580;2023-03-03T03:11:35;98916.00;;;-1.98;91.59
21760;BME280;11041;50.854;20.580;2023-03-03T03:14:04;98948.47;;;-1.81;91.61
21760;BME280;11041;50.854;20.580;2023-03-03T03:16:31;98926.44;;;-1.90;91.14
21760;BME280;11041;50.854;20.580;2023-03-03T03:19:02;98943.59;;;-1.73;91.53
21760;BME280;11041;50.854;20.580;2023-03-03T03:21:29;98952.63;;;-1.67;91.24
21760;BME280;11041;50.854;20.580;2023-03-03T03:23:57;98929.41;;;-1.80;91.37
21760;BME280;11041;50.854;20.580;2023-03-03T03:26:24;98932.00;;;-1.73;91.81
21760;BME280;11041;50.854;20.580;2023-03-03T03:28:50;98942.22;;;-1.63;90.79
21760;BME280;11041;50.854;20.580;2023-03-03T03:31:18;98946.44;;;-1.56;91.42
21760;BME280;11041;50.854;20.580;2023-03-03T03:33:45;98927.66;;;-1.74;91.07
21760;BME280;11041;50.854;20.580;2023-03-03T03:36:13;98950.63;;;-1.60;90.84
21760;BME280;11041;50.854;20.580;2023-03-03T03:38:39;98952.53;;;-1.60;90.96
21760;BME280;11041;50.854;20.580;2023-03-03T03:41:06;98916.97;;;-1.81;90.75
21760;BME280;11041;50.854;20.580;2023-03-03T03:43:34;98941.75;;;-1.60;90.91
21760;BME280;11041;50.854;20.580;2023-03-03T03:46:01;98920.50;;;-1.68;91.69
21760;BME280;11041;50.854;20.580;2023-03-03T03:48:27;98952.97;;;-1.52;91.71
21760;BME280;11041;50.854;20.580;2023-03-03T03:50:54;98922.66;;;-1.59;91.28
21760;BME280;11041;50.854;20.580;2023-03-03T03:53:21;98945.19;;;-1.41;91.35
21760;BME280;11041;50.854;20.580;2023-03-03T03:55:47;98916.09;;;-1.51;91.34
21760;BME280;11041;50.854;20.580;2023-03-03T03:58:15;98942.25;;;-1.28;90.26
21760;BME280;11041;50.854;20.580;2023-03-03T04:00:44;98945.19;;;-1.30;90.13
21760;BME280;11041;50.854;20.580;2023-03-03T04:03:12;98948.09;;;-1.31;90.41
21760;BME280;11041;50.854;20.580;2023-03-03T04:05:42;98940.63;;;-1.29;90.20
21760;BME280;11041;50.854;20.580;2023-03-03T04:08:09;98915.28;;;-1.40;90.52
21760;BME280;11041;50.854;20.580;2023-03-03T04:10:36;98926.53;;;-1.31;90.79
21760;BME280;11041;50.854;20.580;2023-03-03T04:13:03;98925.72;;;-1.32;89.94
21760;BME280;11041;50.854;20.580;2023-03-03T04:15:30;98909.31;;;-1.42;90.50
21760;BME280;11041;50.854;20.580;2023-03-03T04:17:56;98935.13;;;-1.22;90.59
21760;BME280;11041;50.854;20.580;2023-03-03T04:20:23;98891.50;;;-1.43;90.51
21760;BME280;11041;50.854;20.580;2023-03-03T04:22:49;98894.31;;;-1.38;90.57
21760;BME280;11041;50.854;20.580;2023-03-03T04:25:16;98906.25;;;-1.34;90.03
21760;BME280;11041;50.854;20.580;2023-03-03T04:27:44;98925.94;;;-1.33;90.44
21760;BME280;11041;50.854;20.580;2023-03-03T04:30:13;98914.56;;;-1.35;90.74
21760;BME280;11041;50.854;20.580;2023-03-03T04:32:41;98894.88;;;-1.47;90.58
21760;BME280;11041;50.854;20.580;2023-03-03T04:35:09;98929.22;;;-1.43;90.79
21760;BME280;11041;50.854;20.580;2023-03-03T04:37:37;98913.06;;;-1.43;91.29
21760;BME280;11041;50.854;20.580;2023-03-03T04:40:06;98893.00;;;-1.47;91.13
21760;BME280;11041;50.854;20.580;2023-03-03T04:42:34;98896.88;;;-1.43;91.05
21760;BME280;11041;50.854;20.580;2023-03-03T04:45:00;98892.88;;;-1.52;91.32
21760;BME280;11041;50.854;20.580;2023-03-03T04:47:27;98923.50;;;-1.46;90.73
21760;BME280;11041;50.854;20.580;2023-03-03T04:49:53;98928.72;;;-1.52;91.89
21760;BME280;11041;50.854;20.580;2023-03-03T04:52:20;98940.44;;;-1.58;91.87
21760;BME280;11041;50.854;20.580;2023-03-03T04:54:46;98935.41;;;-1.66;91.94
21760;BME280;11041;50.854;20.580;2023-03-03T04:57:13;98913.84;;;-1.78;91.94
21760;BME280;11041;50.854;20.580;2023-03-03T04:59:39;98929.19;;;-1.66;92.64
21760;BME280;11041;50.854;20.580;2023-03-03T05:02:06;98945.63;;;-1.56;92.69
21760;BME280;11041;50.854;20.580;2023-03-03T05:04:33;98912.78;;;-1.65;92.48
21760;BME280;11041;50.854;20.580;2023-03-03T05:07:00;98919.13;;;-1.47;92.74
21760;BME280;11041;50.854;20.580;2023-03-03T05:09:27;98933.00;;;-1.32;91.94
21760;BME280;11041;50.854;20.580;2023-03-03T05:11:53;98907.31;;;-1.46;92.12
21760;BME280;11041;50.854;20.580;2023-03-03T05:14:20;98948.47;;;-1.16;91.52
21760;BME280;11041;50.854;20.580;2023-03-03T05:16:47;98915.16;;;-1.33;91.96
21760;BME280;11041;50.854;20.580;2023-03-03T05:19:14;98940.75;;;-1.12;91.41
21760;BME280;11041;50.854;20.580;2023-03-03T05:21:40;98929.47;;;-1.21;91.49
21760;BME280;11041;50.854;20.580;2023-03-03T05:24:12;98938.03;;;-1.12;91.03
21760;BME280;11041;50.854;20.580;2023-03-03T05:26:40;98919.63;;;-1.15;91.22
21760;BME280;11041;50.854;20.580;2023-03-03T05:29:08;98952.34;;;-1.00;90.94
21760;BME280;11041;50.854;20.580;2023-03-03T05:31:36;98914.69;;;-1.18;91.26
21760;BME280;11041;50.854;20.580;2023-03-03T05:34:02;98917.97;;;-1.16;90.51
21760;BME280;11041;50.854;20.580;2023-03-03T05:36:29;98920.78;;;-1.11;90.75
21760;BME280;11041;50.854;20.580;2023-03-03T05:38:55;98921.97;;;-1.07;91.05
21760;BME280;11041;50.854;20.580;2023-03-03T05:41:22;98931.00;;;-1.01;90.54
21760;BME280;11041;50.854;20.580;2023-03-03T05:43:49;98931.56;;;-0.99;90.52
21760;BME280;11041;50.854;20.580;2023-03-03T05:46:15;98927.13;;;-0.94;90.69
21760;BME280;11041;50.854;20.580;2023-03-03T05:48:43;98929.56;;;-0.92;90.90
21760;BME280;11041;50.854;20.580;2023-03-03T05:51:10;98931.25;;;-0.91;90.92
21760;BME280;11041;50.854;20.580;2023-03-03T05:53:37;98933.47;;;-0.88;90.79
21760;BME280;11041;50.854;20.580;2023-03-03T05:56:04;98913.88;;;-0.95;90.64
21760;BME280;11041;50.854;20.580;2023-03-03T05:58:30;98923.00;;;-0.96;90.59
21760;BME280;11041;50.854;20.580;2023-03-03T06:00:57;98929.94;;;-0.89;90.79
21760;BME280;11041;50.854;20.580;2023-03-03T06:03:23;98908.13;;;-0.99;90.70
21760;BME280;11041;50.854;20.580;2023-03-03T06:05:50;98924.28;;;-0.87;91.15
21760;BME280;11041;50.854;20.580;2023-03-03T06:08:16;98930.66;;;-0.93;91.11
21760;BME280;11041;50.854;20.580;2023-03-03T06:10:43;98893.59;;;-1.10;91.54
21760;BME280;11041;50.854;20.580;2023-03-03T06:13:10;98915.75;;;-0.96;92.03
21760;BME280;11041;50.854;20.580;2023-03-03T06:15:37;98913.66;;;-1.05;91.79
21760;BME280;11041;50.854;20.580;2023-03-03T06:18:04;98925.97;;;-0.98;92.10
21760;BME280;11041;50.854;20.580;2023-03-03T06:20:31;98912.25;;;-1.20;92.12
21760;BME280;11041;50.854;20.580;2023-03-03T06:22:58;98934.75;;;-1.02;92.41
21760;BME280;11041;50.854;20.580;2023-03-03T06:25:24;98947.44;;;-1.03;92.56
21760;BME280;11041;50.854;20.580;2023-03-03T06:27:52;98951.84;;;-1.09;92.88
21760;BME280;11041;50.854;20.580;2023-03-03T06:30:19;98950.13;;;-1.03;93.02
21760;BME280;11041;50.854;20.580;2023-03-03T06:32:45;98913.28;;;-1.21;93.40
21760;BME280;11041;50.854;20.580;2023-03-03T06:35:12;98926.06;;;-1.04;93.24
21760;BME280;11041;50.854;20.580;2023-03-03T06:37:39;98940.84;;;-0.95;93.82
21760;BME280;11041;50.854;20.580;2023-03-03T06:40:07;98926.44;;;-1.01;93.59
21760;BME280;11041;50.854;20.580;2023-03-03T06:42:33;98950.34;;;-0.93;93.54
21760;BME280;11041;50.854;20.580;2023-03-03T06:45:00;98932.75;;;-0.95;93.70
21760;BME280;11041;50.854;20.580;2023-03-03T06:47:26;98929.69;;;-0.99;94.06
21760;BME280;11041;50.854;20.580;2023-03-03T06:49:53;98892.78;;;-1.22;93.75
21760;BME280;11041;50.854;20.580;2023-03-03T06:52:26;98931.09;;;-0.96;94.35
21760;BME280;11041;50.854;20.580;2023-03-03T06:54:57;98917.16;;;-0.93;94.20
21760;BME280;11041;50.854;20.580;2023-03-03T06:57:31;98920.56;;;-0.86;95.09
21760;BME280;11041;50.854;20.580;2023-03-03T07:00:23;98904.13;;;-0.96;94.79
21760;BME280;11041;50.854;20.580;2023-03-03T07:05:56;98901.56;;;-0.79;94.80
21760;BME280;11041;50.854;20.580;2023-03-03T07:08:24;98927.06;;;-0.58;94.25
21760;BME280;11041;50.854;20.580;2023-03-03T07:10:52;98914.06;;;-0.73;94.14
21760;BME280;11041;50.854;20.580;2023-03-03T07:13:26;98946.91;;;-0.65;94.03
21760;BME280;11041;50.854;20.580;2023-03-03T07:15:55;98937.53;;;-0.74;94.38
21760;BME280;11041;50.854;20.580;2023-03-03T07:18:46;98947.28;;;-0.73;94.57
21760;BME280;11041;50.854;20.580;2023-03-03T07:21:35;98936.97;;;-0.88;95.36
21760;BME280;11041;50.854;20.580;2023-03-03T07:24:27;98963.34;;;-0.90;96.07
21760;BME280;11041;50.854;20.580;2023-03-03T07:29:33;98947.75;;;-0.99;97.08
21760;BME280;11041;50.854;20.580;2023-03-03T07:32:20;98961.63;;;-0.96;97.67
21760;BME280;11041;50.854;20.580;2023-03-03T07:34:49;98938.84;;;-1.12;97.96
21760;BME280;11041;50.854;20.580;2023-03-03T07:37:44;98981.41;;;-0.78;97.75
21760;BME280;11041;50.854;20.580;2023-03-03T07:42:59;98944.13;;;-0.93;97.65
21760;BME280;11041;50.854;20.580;2023-03-03T07:45:35;98955.50;;;-0.79;97.47
21760;BME280;11041;50.854;20.580;2023-03-03T07:48:18;98941.88;;;-0.96;97.11
21760;BME280;11041;50.854;20.580;2023-03-03T07:50:49;98958.66;;;-0.71;96.30
21760;BME280;11041;50.854;20.580;2023-03-03T07:53:35;98932.75;;;-0.83;96.00
21760;BME280;11041;50.854;20.580;2023-03-03T07:56:21;98936.72;;;-0.74;96.32
21760;BME280;11041;50.854;20.580;2023-03-03T07:58:51;98925.56;;;-0.78;96.83
21760;BME280;11041;50.854;20.580;2023-03-03T08:01:38;98936.72;;;-0.62;96.53
21760;BME280;11041;50.854;20.580;2023-03-03T08:04:47;98938.34;;;-0.61;95.81
21760;BME280;11041;50.854;20.580;2023-03-03T08:07:20;98937.75;;;-0.63;95.51
21760;BME280;11041;50.854;20.580;2023-03-03T08:12:41;98920.44;;;-0.79;95.72
21760;BME280;11041;50.854;20.580;2023-03-03T08:15:20;98960.63;;;-0.66;94.77
21760;BME280;11041;50.854;20.580;2023-03-03T08:17:50;98938.84;;;-0.88;93.94
21760;BME280;11041;50.854;20.580;2023-03-03T08:23:17;98957.84;;;-0.71;93.78
21760;BME280;11041;50.854;20.580;2023-03-03T08:25:45;98961.34;;;-0.71;93.84
21760;BME280;11041;50.854;20.580;2023-03-03T08:28:13;98979.63;;;-0.61;93.24
21760;BME280;11041;50.854;20.580;2023-03-03T08:30:40;98974.81;;;-0.59;93.17
21760;BME280;11041;50.854;20.580;2023-03-03T08:33:07;98985.16;;;-0.68;93.10
21760;BME280;11041;50.854;20.580;2023-03-03T08:35:34;98970.53;;;-0.83;93.67
21760;BME280;11041;50.854;20.580;2023-03-03T08:38:01;98975.09;;;-0.84;93.78
21760;BME280;11041;50.854;20.580;2023-03-03T08:40:28;98962.06;;;-0.87;93.59
21760;BME280;11041;50.854;20.580;2023-03-03T08:42:54;98969.69;;;-0.84;92.96
21760;BME280;11041;50.854;20.580;2023-03-03T08:45:22;98967.44;;;-0.87;93.68
21760;BME280;11041;50.854;20.580;2023-03-03T08:47:49;98958.31;;;-0.74;92.70
21760;BME280;11041;50.854;20.580;2023-03-03T08:50:16;98964.75;;;-0.63;91.15
21760;BME280;11041;50.854;20.580;2023-03-03T08:52:43;98957.22;;;-0.61;89.77
21760;BME280;11041;50.854;20.580;2023-03-03T08:55:10;98962.03;;;-0.63;89.33
21760;BME280;11041;50.854;20.580;2023-03-03T08:57:37;98948.22;;;-0.67;89.50
21760;BME280;11041;50.854;20.580;2023-03-03T09:00:09;98941.25;;;-0.63;89.65
21760;BME280;11041;50.854;20.580;2023-03-03T09:02:37;98938.34;;;-0.61;88.65
21760;BME280;11041;50.854;20.580;2023-03-03T09:05:05;98956.53;;;-0.57;88.49
21760;BME280;11041;50.854;20.580;2023-03-03T09:07:32;98961.22;;;-0.52;88.07
21760;BME280;11041;50.854;20.580;2023-03-03T09:09:59;98958.41;;;-0.57;88.02
21760;BME280;11041;50.854;20.580;2023-03-03T09:12:52;98963.44;;;-0.61;87.49
21760;BME280;11041;50.854;20.580;2023-03-03T09:15:25;98953.13;;;-0.64;87.29
21760;BME280;11041;50.854;20.580;2023-03-03T09:17:54;98971.91;;;-0.57;87.33
21760;BME280;11041;50.854;20.580;2023-03-03T09:20:35;98967.66;;;-0.65;87.21
21760;BME280;11041;50.854;20.580;2023-03-03T09:23:37;98986.94;;;-0.73;87.05
21760;BME280;11041;50.854;20.580;2023-03-03T09:26:42;98989.75;;;-0.92;87.65
21760;BME280;11041;50.854;20.580;2023-03-03T09:31:49;98986.47;;;-0.94;88.36
21760;BME280;11041;50.854;20.580;2023-03-03T09:36:53;98975.91;;;-0.83;88.54
21760;BME280;11041;50.854;20.580;2023-03-03T09:39:23;98983.31;;;-0.79;88.17
21760;BME280;11041;50.854;20.580;2023-03-03T09:50:43;98981.72;;;-0.39;86.57
21760;BME280;11041;50.854;20.580;2023-03-03T09:53:44;98996.09;;;-0.22;86.19
21760;BME280;11041;50.854;20.580;2023-03-03T09:56:24;98999.66;;;-0.22;86.01
21760;BME280;11041;50.854;20.580;2023-03-03T10:02:22;98986.50;;;-0.30;85.42
21760;BME280;11041;50.854;20.580;2023-03-03T10:05:04;99010.22;;;-0.32;86.10
21760;BME280;11041;50.854;20.580;2023-03-03T10:07:46;99007.16;;;-0.24;86.46
21760;BME280;11041;50.854;20.580;2023-03-03T10:10:52;99006.53;;;-0.02;84.83
21760;BME280;11041;50.854;20.580;2023-03-03T10:13:40;99002.34;;;0.07;83.54
21760;BME280;11041;50.854;20.580;2023-03-03T10:19:37;98992.72;;;0.11;82.41
21760;BME280;11041;50.854;20.580;2023-03-03T10:22:26;99004.28;;;-0.05;83.17
21760;BME280;11041;50.854;20.580;2023-03-03T10:38:15;98986.50;;;0.39;80.74
21760;BME280;11041;50.854;20.580;2023-03-03T10:44:39;98960.53;;;0.55;80.08
21760;BME280;11041;50.854;20.580;2023-03-03T10:56:37;98956.00;;;1.12;78.53
21760;BME280;11041;50.854;20.580;2023-03-03T11:02:44;98955.38;;;1.43;76.31
21760;BME280;11041;50.854;20.580;2023-03-03T11:08:21;98941.41;;;1.52;76.29
21760;BME280;11041;50.854;20.580;2023-03-03T11:14:14;98945.50;;;1.54;76.15
21760;BME280;11041;50.854;20.580;2023-03-03T11:17:19;98956.75;;;1.46;75.69
21760;BME280;11041;50.854;20.580;2023-03-03T11:26:27;98941.13;;;1.31;75.55
21760;BME280;11041;50.854;20.580;2023-03-03T11:32:21;98930.13;;;1.60;75.13
21760;BME280;11041;50.854;20.580;2023-03-03T11:37:58;98924.88;;;1.75;74.75
21760;BME280;11041;50.854;20.580;2023-03-03T11:40:58;98922.22;;;1.80;74.21
21760;BME280;11041;50.854;20.580;2023-03-03T11:43:38;98910.00;;;1.78;74.96
21760;BME280;11041;50.854;20.580;2023-03-03T11:46:15;98902.50;;;1.85;75.12
21760;BME280;11041;50.854;20.580;2023-03-03T11:48:45;98909.78;;;2.06;75.33
21760;BME280;11041;50.854;20.580;2023-03-03T11:51:40;98907.47;;;1.93;73.76
21760;BME280;11041;50.854;20.580;2023-03-03T11:54:27;98908.44;;;1.82;74.15
21760;BME280;11041;50.854;20.580;2023-03-03T12:03:10;98902.09;;;1.71;74.52
21760;BME280;11041;50.854;20.580;2023-03-03T12:20:22;98904.47;;;2.17;73.96
21760;BME280;11041;50.854;20.580;2023-03-03T12:23:25;98900.25;;;2.04;74.28
21760;BME280;11041;50.854;20.580;2023-03-03T12:32:19;98891.84;;;2.00;74.27
21760;BME280;11041;50.854;20.580;2023-03-03T12:35:48;98892.41;;;1.80;74.85
21760;BME280;11041;50.854;20.580;2023-03-03T12:38:47;98891.22;;;1.93;75.06
21760;BME280;11041;50.854;20.580;2023-03-03T12:44:26;98904.91;;;2.08;74.62
21760;BME280;11041;50.854;20.580;2023-03-03T12:53:11;98914.59;;;2.26;73.26
21760;BME280;11041;50.854;20.580;2023-03-03T12:56:17;98913.13;;;2.19;74.29
21760;BME280;11041;50.854;20.580;2023-03-03T13:08:53;98918.47;;;2.08;74.41
21760;BME280;11041;50.854;20.580;2023-03-03T13:14:42;98911.81;;;1.94;75.25
21760;BME280;11041;50.854;20.580;2023-03-03T13:17:33;98897.22;;;1.95;75.00
21760;BME280;11041;50.854;20.580;2023-03-03T13:20:40;98910.44;;;1.91;74.78
21760;BME280;11041;50.854;20.580;2023-03-03T13:32:26;98891.47;;;1.91;74.94
21760;BME280;11041;50.854;20.580;2023-03-03T13:34:58;98882.72;;;1.84;75.26
21760;BME280;11041;50.854;20.580;2023-03-03T13:37:48;98889.56;;;1.92;74.84
21760;BME280;11041;50.854;20.580;2023-03-03T13:43:17;98890.22;;;1.77;74.78
21760;BME280;11041;50.854;20.580;2023-03-03T13:48:47;98894.28;;;2.02;74.85
21760;BME280;11041;50.854;20.580;2023-03-03T14:01:07;98887.00;;;1.80;75.25
21760;BME280;11041;50.854;20.580;2023-03-03T14:06:48;98904.34;;;1.79;75.31
21760;BME280;11041;50.854;20.580;2023-03-03T14:18:33;98889.16;;;1.56;75.57
21760;BME280;11041;50.854;20.580;2023-03-03T14:21:16;98890.00;;;1.57;75.13
21760;BME280;11041;50.854;20.580;2023-03-03T14:24:14;98896.47;;;1.56;74.71
21760;BME280;11041;50.854;20.580;2023-03-03T14:26:51;98875.00;;;1.27;75.04
21760;BME280;11041;50.854;20.580;2023-03-03T14:32:24;98891.66;;;1.36;76.29
21760;BME280;11041;50.854;20.580;2023-03-03T14:35:00;98880.34;;;1.22;77.12
21760;BME280;11041;50.854;20.580;2023-03-03T14:37:46;98881.72;;;1.02;77.43
21760;BME280;11041;50.854;20.580;2023-03-03T14:40:21;98882.16;;;0.94;77.60
21760;BME280;11041;50.854;20.580;2023-03-03T14:42:59;98878.97;;;0.97;77.83
21760;BME280;11041;50.854;20.580;2023-03-03T14:45:39;98888.53;;;1.05;77.44
21760;BME280;11041;50.854;20.580;2023-03-03T14:48:30;98889.41;;;1.11;77.50
21760;BME280;11041;50.854;20.580;2023-03-03T14:51:26;98894.00;;;1.10;77.23
21760;BME280;11041;50.854;20.580;2023-03-03T14:53:57;98887.59;;;0.94;77.78
21760;BME280;11041;50.854;20.580;2023-03-03T14:59:25;98878.97;;;0.80;78.31
21760;BME280;11041;50.854;20.580;2023-03-03T15:04:46;98873.84;;;0.45;79.94
21760;BME280;11041;50.854;20.580;2023-03-03T15:07:38;98880.31;;;0.44;79.98
21760;BME280;11041;50.854;20.580;2023-03-03T15:10:08;98879.97;;;0.40;80.04
21760;BME280;11041;50.854;20.580;2023-03-03T15:12:41;98874.66;;;0.29;80.79
21760;BME280;11041;50.854;20.580;2023-03-03T15:15:21;98887.38;;;0.45;80.77
21760;BME280;11041;50.854;20.580;2023-03-03T15:20:44;98881.22;;;0.50;80.29
21760;BME280;11041;50.854;20.580;2023-03-03T15:27:03;98877.47;;;0.51;80.68
21760;BME280;11041;50.854;20.580;2023-03-03T15:35:43;98877.94;;;0.48;81.30
21760;BME280;11041;50.854;20.580;2023-03-03T15:38:59;98884.25;;;0.53;81.45
21760;BME280;11041;50.854;20.580;2023-03-03T15:42:03;98884.50;;;0.52;81.62
21760;BME280;11041;50.854;20.580;2023-03-03T15:44:43;98888.94;;;0.58;81.37
21760;BME280;11041;50.854;20.580;2023-03-03T16:02:49;98875.56;;;0.17;82.73
21760;BME280;11041;50.854;20.580;2023-03-03T16:05:56;98875.66;;;0.23;82.82
21760;BME280;11041;50.854;20.580;2023-03-03T16:08:44;98875.66;;;0.23;82.68
21760;BME280;11041;50.854;20.580;2023-03-03T16:14:53;98864.19;;;0.32;82.66
21760;BME280;11041;50.854;20.580;2023-03-03T16:23:39;98861.72;;;0.31;82.69
21760;BME280;11041;50.854;20.580;2023-03-03T16:32:47;98881.81;;;0.35;82.85
21760;BME280;11041;50.854;20.580;2023-03-03T16:35:30;98865.50;;;0.30;82.92
21760;BME280;11041;50.854;20.580;2023-03-03T16:38:08;98868.50;;;0.33;83.38
21760;BME280;11041;50.854;20.580;2023-03-03T16:40:54;98871.63;;;0.25;83.27
21760;BME280;11041;50.854;20.580;2023-03-03T16:43:45;98871.41;;;0.27;83.30
21760;BME280;11041;50.854;20.580;2023-03-03T16:46:39;98881.22;;;0.33;82.82
21760;BME280;11041;50.854;20.580;2023-03-03T16:49:31;98874.66;;;0.29;83.26
21760;BME280;11041;50.854;20.580;2023-03-03T16:52:11;98877.34;;;0.29;83.72
21760;BME280;11041;50.854;20.580;2023-03-03T17:00:21;98881.13;;;0.45;83.16
21760;BME280;11041;50.854;20.580;2023-03-03T17:06:32;98877.63;;;0.44;83.25
21760;BME280;11041;50.854;20.580;2023-03-03T17:09:46;98871.72;;;0.47;83.39
21760;BME280;11041;50.854;20.580;2023-03-03T17:13:00;98875.44;;;0.41;83.37
21760;BME280;11041;50.854;20.580;2023-03-03T17:18:13;98870.91;;;0.30;83.75
21760;BME280;11041;50.854;20.580;2023-03-03T17:20:48;98884.00;;;0.38;83.80
21760;BME280;11041;50.854;20.580;2023-03-03T17:29:25;98887.50;;;0.21;84.55
21760;BME280;11041;50.854;20.580;2023-03-03T17:38:18;98892.75;;;0.11;85.27
21760;BME280;11041;50.854;20.580;2023-03-03T17:44:00;98892.16;;;0.09;85.81
21760;BME280;11041;50.854;20.580;2023-03-03T17:52:34;98890.28;;;-0.07;86.35
21760;BME280;11041;50.854;20.580;2023-03-03T18:04:55;98877.13;;;-0.15;86.22
21760;BME280;11041;50.854;20.580;2023-03-03T18:10:49;98889.28;;;-0.01;85.92
21760;BME280;11041;50.854;20.580;2023-03-03T18:24:38;98873.56;;;-0.04;86.03